Time;durP1;ratioP1;P1;durP2;ratioP2;P2;SDS_P1;SDS_P2;PMS_P1;PMS_P2;Temp;Humidity;BMP_temperature;BMP_pressure;BME280_temperature;BME280_humidity;BME280_pressure;Samples;Min_cycle;Max_cycle;Signal;HPM_P1;HPM_P2
2022/09/17 00:00:24;;;;;;;2.30;1.60;;;;;;;;;;5073523;28;20316;-63
2022/09/17 00:02:54;;;;;;;2.50;1.40;;;;;;;;;;5073496;28;20216;-65
2022/09/17 00:05:22;;;;;;;2.15;1.35;;;;;;;;;;5073157;28;20205;-65
2022/09/17 00:07:51;;;;;;;3.28;1.90;;;;;;;;;;5073144;28;20194;-64
2022/09/17 00:10:19;;;;;;;5.10;1.73;;;;;;;;;;5073412;28;20280;-63
2022/09/17 00:12:46;;;;;;;3.05;1.83;;;;;;;;;;5073526;28;20297;-63
2022/09/17 00:15:14;;;;;;;4.75;1.90;;;;;;;;;;5073175;28;20553;-63
2022/09/17 00:17:41;;;;;;;2.45;1.95;;;;;;;;;;5073043;28;20193;-63
2022/09/17 00:20:09;;;;;;;2.47;1.50;;;;;;;;;;5072658;28;20216;-63
2022/09/17 00:22:37;;;;;;;2.42;1.23;;;;;;;;;;5073073;28;20274;-63
2022/09/17 00:25:07;;;;;;;3.25;1.23;;;;;;;;;;5072765;28;20289;-63
2022/09/17 00:27:34;;;;;;;3.85;1.60;;;;;;;;;;5072841;28;20225;-63
2022/09/17 00:30:01;;;;;;;3.60;1.92;;;;;;;;;;5073007;28;20280;-64
2022/09/17 00:32:28;;;;;;;3.17;1.58;;;;;;;;;;5072887;28;20280;-64
2022/09/17 00:34:55;;;;;;;4.03;1.35;;;;;;;;;;5072578;28;20185;-63
2022/09/17 00:37:23;;;;;;;2.15;1.20;;;;;;;;;;5072773;28;20313;-64
2022/09/17 00:39:50;;;;;;;3.08;1.75;;;;;;;;;;5072270;28;20303;-64
2022/09/17 00:42:19;;;;;;;3.40;1.50;;;;;;;;;;5072861;28;20740;-63
2022/09/17 00:44:49;;;;;;;6.07;1.87;;;;;;;;;;5072653;28;20603;-63
2022/09/17 00:47:18;;;;;;;3.10;1.75;;;;;;;;;;5072172;28;20468;-64
2022/09/17 00:49:46;;;;;;;3.15;1.40;;;;;;;;;;5072482;28;20225;-64
2022/09/17 00:52:14;;;;;;;2.55;1.75;;;;;;;;;;5072682;28;20234;-64
2022/09/17 00:54:45;;;;;;;2.80;1.70;;;;;;;;;;5072292;28;20300;-64
2022/09/17 00:57:12;;;;;;;3.65;1.70;;;;;;;;;;5072646;28;20235;-63
2022/09/17 00:59:40;;;;;;;4.70;2.17;;;;;;;;;;5072533;28;20213;-63
2022/09/17 01:02:08;;;;;;;2.55;1.65;;;;;;;;;;5072224;28;20217;-63
2022/09/17 01:04:35;;;;;;;3.10;2.35;;;;;;;;;;5072576;28;20707;-63
2022/09/17 01:07:07;;;;;;;2.60;1.70;;;;;;;;;;5072528;28;20276;-63
2022/09/17 01:09:40;;;;;;;3.58;2.15;;;;;;;;;;5072289;28;20323;-64
2022/09/17 01:12:32;;;;;;;4.70;2.30;;;;;;;;;;5072598;28;20185;-64
2022/09/17 01:15:05;;;;;;;3.30;2.00;;;;;;;;;;5072283;28;20467;-63
2022/09/17 01:17:37;;;;;;;3.65;1.63;;;;;;;;;;5072443;28;20280;-63
2022/09/17 01:20:28;;;;;;;7.18;2.13;;;;;;;;;;5072015;28;20259;-63
2022/09/17 01:23:02;;;;;;;2.80;2.20;;;;;;;;;;5072430;28;20186;-63
2022/09/17 01:25:35;;;;;;;3.80;2.03;;;;;;;;;;5072350;28;20229;-63
2022/09/17 01:28:21;;;;;;;4.47;2.53;;;;;;;;;;5072267;28;20229;-63
2022/09/17 01:31:09;;;;;;;2.47;1.60;;;;;;;;;;5072537;28;20221;-63
2022/09/17 01:33:42;;;;;;;2.83;1.60;;;;;;;;;;5072371;28;20225;-63
2022/09/17 01:36:19;;;;;;;2.17;1.48;;;;;;;;;;5072062;28;20279;-64
2022/09/17 01:38:51;;;;;;;2.25;1.67;;;;;;;;;;5072238;28;20228;-64
2022/09/17 01:41:23;;;;;;;2.70;1.50;;;;;;;;;;5071685;28;20304;-63
2022/09/17 01:43:53;;;;;;;5.32;1.30;;;;;;;;;;5072027;28;20648;-63
2022/09/17 01:46:25;;;;;;;2.65;1.40;;;;;;;;;;5072322;28;20190;-63
2022/09/17 01:48:57;;;;;;;5.50;2.63;;;;;;;;;;5071673;28;20240;-65
2022/09/17 01:51:25;;;;;;;2.67;1.52;;;;;;;;;;5072061;28;20617;-64
2022/09/17 01:53:56;;;;;;;2.17;1.35;;;;;;;;;;5072026;28;20237;-63
2022/09/17 01:56:27;;;;;;;2.58;1.40;;;13.70;92.40;;;;;;5071958;28;20263;-63
2022/09/17 01:58:59;;;;;;;2.50;1.25;;;11.80;91.60;;;;;;5072916;28;20280;-64
2022/09/17 02:01:31;;;;;;;2.50;1.60;;;11.60;91.90;;;;;;5075422;28;20308;-63
2022/09/17 02:04:03;;;;;;;2.40;1.50;;;11.50;92.00;;;;;;5075753;28;20277;-63
2022/09/17 02:06:36;;;;;;;3.22;1.70;;;11.50;92.40;;;;;;5075685;28;20285;-64
2022/09/17 02:09:08;;;;;;;2.50;1.60;;;11.60;92.60;;;;;;5075376;28;20288;-63
2022/09/17 02:11:37;;;;;;;2.75;1.52;;;11.50;92.60;;;;;;5075411;28;20319;-63
2022/09/17 02:14:08;;;;;;;4.45;1.80;;;11.60;92.90;;;;;;5075403;28;20683;-63
2022/09/17 02:16:39;;;;;;;2.55;1.38;;;11.50;92.80;;;;;;5075582;28;20232;-63
2022/09/17 02:19:10;;;;;;;4.05;1.42;;;11.50;92.40;;;;;;5075410;28;20243;-64
2022/09/17 02:21:43;;;;;;;2.80;2.17;;;11.50;92.40;;;;;;5075480;28;20280;-63
2022/09/17 02:24:17;;;;;;;3.05;2.67;;;11.50;93.00;;;;;;5075329;28;20229;-63
2022/09/17 02:26:48;;;;;;;3.00;2.10;;;11.50;93.20;;;;;;5075244;28;20193;-65
2022/09/17 02:29:30;;;;;;;4.50;2.38;;;11.60;93.50;;;;;;5074717;28;20247;-63
2022/09/17 02:31:59;;;;;;;4.55;2.22;;;11.60;93.60;;;;;;5075287;28;20312;-64
2022/09/17 02:34:28;;;;;;;2.95;1.83;;;11.60;93.60;;;;;;5075279;28;20609;-64
2022/09/17 02:36:55;;;;;;;3.28;1.90;;;11.60;93.40;;;;;;5074928;28;20259;-64
2022/09/17 02:39:22;;;;;;;3.03;1.77;;;11.60;93.50;;;;;;5075176;28;20285;-64
2022/09/17 02:41:58;;;;;;;3.13;2.33;;;11.60;93.40;;;;;;5074915;28;20225;-63
2022/09/17 02:44:32;;;;;;;2.85;1.80;;;11.60;93.50;;;;;;5075238;28;20280;-63
2022/09/17 02:47:18;;;;;;;2.58;1.70;;;11.70;93.50;;;;;;5074963;28;20199;-64
2022/09/17 02:50:13;;;;;;;4.00;2.28;;;11.70;93.50;;;;;;5074510;28;20284;-63
2022/09/17 02:52:53;;;;;;;3.47;1.90;;;11.70;93.60;;;;;;5074698;28;20216;-63
2022/09/17 02:55:30;;;;;;;3.53;2.28;;;11.70;93.70;;;;;;5074941;28;20197;-63
2022/09/17 02:58:05;;;;;;;4.10;1.70;;;11.80;93.80;;;;;;5074239;28;20268;-64
2022/09/17 03:00:32;;;;;;;2.22;1.50;;;11.80;93.70;;;;;;5074792;28;20190;-63
2022/09/17 03:03:08;;;;;;;2.70;1.67;;;11.80;93.40;;;;;;5074572;28;20324;-64
2022/09/17 03:05:38;;;;;;;3.45;1.88;;;11.80;93.60;;;;;;5074719;28;20232;-64
2022/09/17 03:08:09;;;;;;;3.10;2.03;;;11.80;93.90;;;;;;5074262;28;20244;-63
2022/09/17 03:10:36;;;;;;;3.53;2.20;;;11.80;93.80;;;;;;5073707;28;20260;-63
2022/09/17 03:13:03;;;;;;;2.75;2.00;;;11.80;93.90;;;;;;5074156;28;20194;-63
2022/09/17 03:15:30;;;;;;;7.20;1.90;;;11.80;93.80;;;;;;5074299;28;20284;-63
2022/09/17 03:17:57;;;;;;;2.70;1.60;;;11.90;93.80;;;;;;5074286;28;20287;-64
2022/09/17 03:20:25;;;;;;;3.28;2.35;;;11.90;93.70;;;;;;5074295;28;20281;-65
2022/09/17 03:22:52;;;;;;;2.40;1.45;;;11.90;93.40;;;;;;5074282;28;20284;-64
2022/09/17 03:25:20;;;;;;;3.45;1.65;;;11.90;93.20;;;;;;5074344;28;20242;-63
2022/09/17 03:27:47;;;;;;;5.25;2.13;;;11.90;93.10;;;;;;5074155;28;20280;-63
2022/09/17 03:30:14;;;;;;;7.05;2.63;;;11.90;92.80;;;;;;5073804;28;20189;-63
2022/09/17 03:32:41;;;;;;;2.58;2.00;;;11.90;92.70;;;;;;5073408;28;20280;-63
2022/09/17 03:35:08;;;;;;;2.65;1.80;;;11.90;92.60;;;;;;5073505;28;20225;-64
2022/09/17 03:37:36;;;;;;;2.50;1.30;;;11.90;92.70;;;;;;5073933;28;20652;-64
2022/09/17 03:40:04;;;;;;;2.83;1.80;;;11.80;92.50;;;;;;5073749;28;20286;-63
2022/09/17 03:42:31;;;;;;;3.42;2.15;;;11.80;92.60;;;;;;5073840;28;20198;-63
2022/09/17 03:44:58;;;;;;;2.00;1.20;;;11.80;92.50;;;;;;5073667;28;20284;-64
2022/09/17 03:47:25;;;;;;;4.00;2.25;;;11.80;92.40;;;;;;5073772;28;20280;-64
2022/09/17 03:49:52;;;;;;;2.53;1.95;;;11.80;92.60;;;;;;5073619;28;20301;-64
2022/09/17 03:52:19;;;;;;;3.85;1.83;;;11.80;92.50;;;;;;5073292;28;20222;-63
2022/09/17 03:54:47;;;;;;;3.58;2.00;;;11.80;92.30;;;;;;5073561;28;20186;-63
2022/09/17 03:57:15;;;;;;;2.40;1.67;;;11.80;92.30;;;;;;5073279;28;20232;-64
2022/09/17 03:59:42;;;;;;;3.85;2.45;;;11.80;92.40;;;;;;5073131;28;20655;-63
2022/09/17 04:02:09;;;;;;;3.65;1.75;;;11.80;92.40;;;;;;5073647;28;20699;-63
2022/09/17 04:04:36;;;;;;;2.40;1.60;;;11.70;92.40;;;;;;5073798;28;20285;-63
2022/09/17 04:07:04;;;;;;;2.85;1.70;;;11.70;92.30;;;;;;5073582;28;20194;-63
2022/09/17 04:09:32;;;;;;;2.30;1.60;;;11.70;92.20;;;;;;5073309;28;20281;-63
2022/09/17 04:12:00;;;;;;;3.15;1.95;;;11.70;92.40;;;;;;5073581;28;20308;-64
2022/09/17 04:14:27;;;;;;;2.35;1.85;;;11.70;92.40;;;;;;5073711;28;20281;-63
2022/09/17 04:16:54;;;;;;;3.05;1.80;;;11.70;92.40;;;;;;5073287;28;20597;-64
2022/09/17 04:19:21;;;;;;;2.70;1.90;;;11.60;92.40;;;;;;5073624;28;20228;-64
2022/09/17 04:21:48;;;;;;;2.80;2.00;;;11.60;92.60;;;;;;5073543;28;20236;-64
2022/09/17 04:24:15;;;;;;;2.90;2.25;;;11.60;92.60;;;;;;5072862;28;20276;-63
2022/09/17 04:26:41;;;;;;;2.60;1.50;;;11.60;92.40;;;;;;5073471;28;20225;-63
2022/09/17 04:29:10;;;;;;;6.00;2.20;;;11.60;92.40;;;;;;5073244;28;20278;-63
2022/09/17 04:31:37;;;;;;;4.45;1.90;;;11.50;92.30;;;;;;5073000;28;20221;-63
2022/09/17 04:34:04;;;;;;;2.95;1.80;;;11.50;92.00;;;;;;5073080;28;20284;-66
2022/09/17 04:36:31;;;;;;;2.60;1.95;;;11.50;92.20;;;;;;5073048;28;20304;-64
2022/09/17 04:38:58;;;;;;;2.28;1.52;;;11.50;92.30;;;;;;5072980;28;20277;-63
2022/09/17 04:41:25;;;;;;;3.45;2.10;;;11.50;92.40;;;;;;5073085;28;20193;-64
2022/09/17 04:43:52;;;;;;;3.58;2.13;;;11.50;92.30;;;;;;5072929;28;20611;-64
2022/09/17 04:46:20;;;;;;;2.65;1.80;;;11.50;92.30;;;;;;5073095;28;20292;-63
2022/09/17 04:48:47;;;;;;;3.22;2.53;;;11.50;92.30;;;;;;5073157;28;20272;-63
2022/09/17 04:51:14;;;;;;;2.92;1.73;;;11.50;92.30;;;;;;5072633;28;20307;-63
2022/09/17 04:53:40;;;;;;;3.33;1.40;;;11.50;92.30;;;;;;5073002;28;20280;-63
2022/09/17 04:56:07;;;;;;;2.42;1.73;;;11.50;92.20;;;;;;5072975;28;20280;-63
2022/09/17 04:58:34;;;;;;;2.72;1.85;;;11.50;92.00;;;;;;5073034;28;20236;-63
2022/09/17 05:01:01;;;;;;;2.70;1.60;;;11.50;92.10;;;;;;5072972;28;20567;-64
2022/09/17 05:03:29;;;;;;;2.60;1.50;;;11.50;92.60;;;;;;5073045;28;20221;-63
2022/09/17 05:05:56;;;;;;;2.17;1.60;;;11.50;92.20;;;;;;5072878;28;20277;-64
2022/09/17 05:08:24;;;;;;;4.60;1.92;;;11.40;92.10;;;;;;5072525;28;20277;-64
2022/09/17 05:10:51;;;;;;;2.00;1.30;;;11.40;92.20;;;;;;5072767;28;20225;-63
2022/09/17 05:13:18;;;;;;;2.45;1.40;;;11.40;92.40;;;;;;5073020;28;20285;-63
2022/09/17 05:15:45;;;;;;;2.45;1.65;;;11.40;92.80;;;;;;5072993;28;20228;-63
2022/09/17 05:18:12;;;;;;;2.50;1.70;;;11.40;92.80;;;;;;5072782;28;20281;-65
2022/09/17 05:20:40;;;;;;;2.72;1.65;;;11.40;92.90;;;;;;5072842;28;20199;-63
2022/09/17 05:23:07;;;;;;;3.28;1.98;;;11.40;93.00;;;;;;5072750;28;20280;-63
2022/09/17 05:25:34;;;;;;;2.70;2.00;;;11.40;93.00;;;;;;5072524;28;20243;-63
2022/09/17 05:28:01;;;;;;;5.40;1.80;;;11.40;93.10;;;;;;5072544;28;20284;-63
2022/09/17 05:30:29;;;;;;;3.75;1.60;;;11.50;93.00;;;;;;5072544;28;20289;-66
2022/09/17 05:33:01;;;;;;;4.22;1.60;;;11.40;92.80;;;;;;5066777;28;20940;-63
2022/09/17 05:35:28;;;;;;;2.85;1.95;;;11.50;92.80;;;;;;5071620;28;20236;-63
2022/09/17 05:38:02;;;;;;;2.10;1.15;;;11.50;92.60;;;;;;5070767;28;20541;-64
2022/09/17 05:40:31;;;;;;;2.17;1.40;;;11.50;92.50;;;;;;5072034;28;20775;-64
2022/09/17 05:42:59;;;;;;;2.40;1.50;;;11.50;92.50;;;;;;5072430;28;20558;-63
2022/09/17 05:45:27;;;;;;;2.83;1.83;;;11.40;92.40;;;;;;5071095;28;20711;-63
2022/09/17 05:47:58;;;;;;;3.30;2.30;;;11.40;92.50;;;;;;5073567;28;20280;-64
2022/09/17 05:50:26;;;;;;;3.50;1.55;;;11.40;92.70;;;;;;5071860;28;20268;-64
2022/09/17 05:52:54;;;;;;;3.45;1.90;;;11.50;92.80;;;;;;5071511;28;20428;-65
2022/09/17 05:55:23;;;;;;;2.60;1.50;;;11.40;92.80;;;;;;5070353;28;20209;-63
2022/09/17 05:57:51;;;;;;;2.88;1.80;;;11.50;92.60;;;;;;5074029;28;20192;-63
2022/09/17 06:00:18;;;;;;;3.90;1.60;;;11.40;92.50;;;;;;5073970;28;20190;-63
2022/09/17 06:02:53;;;;;;;4.38;1.70;;;11.40;92.40;;;;;;5055020;28;20197;-63
2022/09/17 06:05:20;;;;;;;4.78;1.65;;;11.40;92.50;;;;;;5063113;28;20189;-63
2022/09/17 06:07:47;;;;;;;3.20;2.00;;;11.40;92.40;;;;;;5073598;28;20194;-63
2022/09/17 06:10:15;;;;;;;4.57;1.60;;;11.40;92.20;;;;;;5072231;28;20190;-63
2022/09/17 06:12:43;;;;;;;2.65;1.63;;;11.30;92.30;;;;;;5073100;28;20320;-64
2022/09/17 06:15:13;;;;;;;3.55;1.90;;;11.40;92.40;;;;;;5070020;28;20259;-63
2022/09/17 06:17:42;;;;;;;2.90;1.52;;;11.40;92.50;;;;;;5074414;28;20243;-64
2022/09/17 06:20:10;;;;;;;2.40;1.67;;;11.40;91.70;;;;;;5074090;28;20537;-63
2022/09/17 06:22:39;;;;;;;4.35;1.50;;;11.40;92.00;;;;;;5073898;28;20679;-63
2022/09/17 06:25:07;;;;;;;3.95;1.60;;;11.40;92.10;;;;;;5074181;28;20186;-63
2022/09/17 06:27:35;;;;;;;3.10;1.52;;;11.40;92.20;;;;;;5074025;28;20289;-64
2022/09/17 06:30:04;;;;;;;3.22;1.60;;;11.50;92.20;;;;;;5073279;28;20280;-64
2022/09/17 06:32:32;;;;;;;2.95;1.58;;;11.40;91.80;;;;;;5070247;28;20298;-64
2022/09/17 06:35:00;;;;;;;2.70;1.63;;;11.40;91.80;;;;;;5074250;28;20316;-64
2022/09/17 06:37:28;;;;;;;2.35;1.20;;;11.50;91.90;;;;;;5074118;28;20282;-63
2022/09/17 06:39:55;;;;;;;2.75;1.48;;;11.50;92.30;;;;;;5073279;28;20186;-64
2022/09/17 06:42:22;;;;;;;2.25;1.35;;;11.60;92.70;;;;;;5073881;28;20229;-65
2022/09/17 06:44:49;;;;;;;3.90;1.65;;;11.60;92.80;;;;;;5073358;28;20286;-63
2022/09/17 06:47:17;;;;;;;2.80;1.90;;;11.80;92.90;;;;;;5073303;28;20277;-63
2022/09/17 06:49:44;;;;;;;3.17;1.65;;;12.10;93.00;;;;;;5073176;28;20280;-64
2022/09/17 06:52:11;;;;;;;2.95;1.98;;;12.30;93.10;;;;;;5073739;28;20304;-63
2022/09/17 06:54:38;;;;;;;3.65;2.17;;;12.60;93.20;;;;;;5073669;28;20197;-63
2022/09/17 06:57:06;;;;;;;2.53;1.75;;;13.00;93.70;;;;;;5073223;28;20276;-63
2022/09/17 06:59:33;;;;;;;4.10;2.17;;;13.70;94.50;;;;;;5073415;28;20221;-64
2022/09/17 07:02:00;;;;;;;5.00;2.40;;;14.50;93.70;;;;;;5073512;28;20531;-65
2022/09/17 07:04:28;;;;;;;4.20;2.60;;;15.30;91.20;;;;;;5073739;28;20752;-63
2022/09/17 07:06:55;;;;;;;5.30;2.90;;;15.50;84.90;;;;;;5073188;28;20527;-64
2022/09/17 07:09:22;;;;;;;3.53;1.50;;;15.50;84.50;;;;;;5073156;28;20835;-63
2022/09/17 07:11:49;;;;;;;3.03;1.50;;;15.60;82.30;;;;;;5073465;28;20479;-64
2022/09/17 07:14:17;;;;;;;2.47;1.30;;;15.50;79.70;;;;;;5073423;28;20440;-64
2022/09/17 07:16:44;;;;;;;3.10;1.30;;;15.40;78.30;;;;;;5073285;28;20456;-64
2022/09/17 07:19:11;;;;;;;2.80;1.27;;;15.30;78.80;;;;;;5072757;28;20547;-63
2022/09/17 07:21:40;;;;;;;3.50;1.67;;;15.40;81.10;;;;;;5072948;28;20522;-63
2022/09/17 07:24:07;;;;;;;2.63;1.87;;;15.80;80.50;;;;;;5073063;28;20852;-63
2022/09/17 07:26:37;;;;;;;5.90;1.70;;;16.10;79.10;;;;;;5071421;28;20986;-64
2022/09/17 07:29:04;;;;;;;2.50;1.30;;;16.40;77.90;;;;;;5069581;28;20523;-63
2022/09/17 07:31:31;;;;;;;3.33;1.20;;;16.90;72.70;;;;;;5072397;28;20476;-64
2022/09/17 07:34:00;;;;;;;3.40;1.27;;;16.90;71.80;;;;;;5072557;28;20431;-64
2022/09/17 07:36:27;;;;;;;5.97;2.67;;;16.70;69.60;;;;;;5071906;28;20476;-64
2022/09/17 07:38:55;;;;;;;2.60;1.47;;;16.50;68.10;;;;;;5069414;28;20855;-65
2022/09/17 07:41:23;;;;;;;3.20;1.77;;;16.50;69.00;;;;;;5070730;28;20519;-63
2022/09/17 07:43:53;;;;;;;2.60;1.40;;;16.50;68.90;;;;;;5071031;28;20527;-64
2022/09/17 07:46:21;;;;;;;2.90;1.13;;;16.50;68.60;;;;;;5070155;28;20444;-63
2022/09/17 07:48:50;;;;;;;2.90;1.37;;;18.00;80.30;;;;;;5071533;28;20502;-64
2022/09/17 07:51:24;;;;;;;2.40;1.10;;;21.40;70.00;;;;;;5071100;28;20434;-64
2022/09/17 07:53:58;;;;;;;5.10;1.20;;;22.60;53.40;;;;;;5063754;28;20434;-64
2022/09/17 07:56:27;;;;;;;4.87;0.97;;;21.90;50.70;;;;;;5071209;28;20472;-64
2022/09/17 07:58:54;;;;;;;2.70;1.37;;;21.40;49.50;;;;;;5071110;28;20454;-66
2022/09/17 08:01:22;;;;;;;2.67;1.33;;;20.80;49.90;;;;;;5067638;28;20537;-63
2022/09/17 08:03:50;;;;;;;4.63;1.53;;;20.60;53.10;;;;;;5071107;28;20871;-64
2022/09/17 08:06:20;;;;;;;3.83;1.13;;;22.90;58.80;;;;;;5070961;28;20436;-64
2022/09/17 08:08:48;;;;;;;2.80;0.80;;;25.80;48.90;;;;;;5071141;28;20476;-64
2022/09/17 08:11:19;;;;;;;2.83;0.80;;;25.90;40.70;;;;;;5071400;28;20539;-66
2022/09/17 08:13:48;;;;;;;4.70;1.20;;;24.90;40.10;;;;;;5070858;28;21004;-65
2022/09/17 08:16:16;;;;;;;3.10;0.83;;;24.30;42.20;;;;;;5070179;28;20956;-64
2022/09/17 08:18:43;;;;;;;6.13;1.07;;;23.70;40.40;;;;;;5069916;28;20529;-64
2022/09/17 08:21:12;;;;;;;4.20;1.93;;;23.10;41.90;;;;;;5070596;28;20563;-63
2022/09/17 08:23:41;;;;;;;2.83;1.20;;;22.30;41.90;;;;;;5071437;28;20516;-65
2022/09/17 08:26:12;;;;;;;5.33;1.10;;;21.70;43.90;;;;;;5070663;28;20845;-64
2022/09/17 08:28:44;;;;;;;6.70;1.20;;;21.70;45.00;;;;;;5070779;28;20443;-63
2022/09/17 08:31:17;;;;;;;6.83;1.20;;;21.80;44.10;;;;;;5070842;28;20514;-63
2022/09/17 08:33:45;;;;;;;3.80;1.00;;;22.30;48.30;;;;;;5067289;28;20479;-63
2022/09/17 08:36:14;;;;;;;3.93;1.07;;;23.10;42.60;;;;;;5070250;28;20970;-63
2022/09/17 08:38:41;;;;;;;3.70;1.00;;;23.20;42.00;;;;;;5071167;28;20475;-64
2022/09/17 08:41:20;;;;;;;2.33;0.90;;;23.50;41.00;;;;;;5069849;28;20436;-64
2022/09/17 08:43:55;;;;;;;2.53;0.90;;;23.30;39.60;;;;;;5069292;28;20514;-63
2022/09/17 08:46:23;;;;;;;2.87;0.93;;;23.40;41.50;;;;;;5067898;28;20471;-64
2022/09/17 08:49:01;;;;;;;4.33;1.20;;;23.60;40.10;;;;;;5070928;28;20486;-63
2022/09/17 08:51:38;;;;;;;4.20;1.10;;;23.40;40.80;;;;;;5068551;28;20780;-65
2022/09/17 08:54:14;;;;;;;5.93;1.47;;;23.20;39.50;;;;;;5070314;28;20449;-63
2022/09/17 08:56:45;;;;;;;4.70;0.83;;;22.50;38.60;;;;;;5070212;28;20522;-63
2022/09/17 08:59:22;;;;;;;4.27;1.20;;;21.80;40.30;;;;;;5061387;28;20539;-64
2022/09/17 09:02:02;;;;;;;3.03;1.30;;;21.10;40.90;;;;;;5064098;28;20878;-66
2022/09/17 09:04:54;;;;;;;3.93;1.03;;;20.70;44.00;;;;;;5068328;28;20436;-64
2022/09/17 09:07:27;;;;;;;2.93;1.07;;;20.70;43.40;;;;;;5066497;28;20581;-64
2022/09/17 09:10:07;;;;;;;3.13;1.20;;;20.60;42.90;;;;;;5067214;28;20922;-64
2022/09/17 09:12:36;;;;;;;5.50;1.23;;;20.70;44.00;;;;;;5066656;28;20533;-63
2022/09/17 09:15:08;;;;;;;4.00;1.03;;;21.10;46.60;;;;;;5068752;28;20428;-64
2022/09/17 09:17:38;;;;;;;3.20;1.57;;;22.90;45.40;;;;;;5071195;28;20471;-63
2022/09/17 09:20:12;;;;;;;6.80;0.80;;;23.50;40.20;;;;;;5068765;28;20514;-63
2022/09/17 09:22:47;;;;;;;3.63;0.90;;;22.90;38.50;;;;;;5066684;28;20503;-63
2022/09/17 09:25:23;;;;;;;3.93;1.20;;;22.10;39.20;;;;;;5069989;28;20430;-63
2022/09/17 09:28:02;;;;;;;5.50;1.20;;;21.50;39.10;;;;;;5066968;28;20471;-64
2022/09/17 09:30:42;;;;;;;2.47;0.70;;;21.10;40.90;;;;;;5070255;28;20472;-63
2022/09/17 09:33:13;;;;;;;4.53;0.90;;;20.50;41.10;;;;;;5067879;28;20531;-63
2022/09/17 09:35:43;;;;;;;2.80;0.90;;;20.30;43.10;;;;;;5070601;28;20464;-63
2022/09/17 09:38:21;;;;;;;3.80;1.10;;;20.20;43.90;;;;;;5070256;28;20468;-64
2022/09/17 09:40:55;;;;;;;2.57;0.90;;;20.10;41.90;;;;;;5070345;28;20439;-63
2022/09/17 09:43:31;;;;;;;3.80;1.10;;;20.00;42.10;;;;;;5070569;28;20420;-63
2022/09/17 09:46:24;;;;;;;2.30;1.00;;;20.20;47.30;;;;;;5070930;28;20846;-64
2022/09/17 09:49:05;;;;;;;3.87;0.97;;;24.30;45.60;;;;;;5069035;28;20479;-65
2022/09/17 09:51:43;;;;;;;2.57;1.30;;;25.90;37.70;;;;;;5067200;28;20735;-64
2022/09/17 09:54:28;;;;;;;5.10;1.37;;;25.30;34.20;;;;;;5069996;28;20475;-64
2022/09/17 09:56:58;;;;;;;3.87;1.00;;;25.60;39.70;;;;;;5069845;28;20435;-65
2022/09/17 09:59:26;;;;;;;3.33;1.40;;;30.50;38.50;;;;;;5069497;28;20451;-65
2022/09/17 10:01:55;;;;;;;4.30;1.30;;;34.70;29.20;;;;;;5069491;28;20839;-63
2022/09/17 10:04:24;;;;;;;2.70;1.20;;;35.60;23.40;;;;;;5070165;28;20459;-63
2022/09/17 10:06:53;;;;;;;5.30;1.50;;;35.10;22.20;;;;;;5069884;28;20436;-63
2022/09/17 10:09:21;;;;;;;3.00;1.30;;;33.40;21.40;;;;;;5066285;28;20432;-63
2022/09/17 10:12:03;;;;;;;2.70;1.10;;;31.40;22.40;;;;;;5069886;28;20428;-62
2022/09/17 10:14:32;;;;;;;4.93;1.10;;;29.30;23.40;;;;;;5065735;28;20837;-63
2022/09/17 10:17:19;;;;;;;2.33;1.07;;;27.50;25.30;;;;;;5070590;28;20487;-62
2022/09/17 10:20:05;;;;;;;2.97;1.10;;;26.00;27.50;;;;;;5069125;28;20443;-61
2022/09/17 10:22:35;;;;;;;3.40;1.00;;;24.70;28.30;;;;;;5068964;28;20559;-62
2022/09/17 10:25:04;;;;;;;2.47;0.90;;;23.40;29.50;;;;;;5071331;28;20441;-65
2022/09/17 10:27:31;;;;;;;8.13;1.00;;;22.50;31.00;;;;;;5073317;28;20432;-64
2022/09/17 10:30:10;;;;;;;3.03;1.10;;;21.70;31.70;;;;;;5072256;28;20487;-64
2022/09/17 10:32:38;;;;;;;4.13;1.10;;;21.10;33.60;;;;;;5073181;28;20432;-65
2022/09/17 10:35:24;;;;;;;3.17;1.07;;;20.50;35.90;;;;;;5072503;28;20512;-64
2022/09/17 10:37:53;;;;;;;2.77;1.00;;;20.00;35.10;;;;;;5069473;28;20527;-63
2022/09/17 10:40:30;;;;;;;4.40;0.90;;;19.50;36.70;;;;;;5072423;28;20516;-63
2022/09/17 10:43:18;;;;;;;2.20;0.80;;;18.90;38.10;;;;;;5072426;28;20956;-65
2022/09/17 10:45:54;;;;;;;2.57;1.00;;;18.50;38.60;;;;;;5072406;28;20525;-63
2022/09/17 10:48:23;;;;;;;2.80;0.80;;;18.20;40.40;;;;;;5072523;28;20831;-64
2022/09/17 10:50:52;;;;;;;3.40;1.00;;;18.00;41.30;;;;;;5072951;28;20514;-63
2022/09/17 10:53:22;;;;;;;3.33;1.00;;;17.90;41.70;;;;;;5073031;28;20520;-64
2022/09/17 10:55:52;;;;;;;2.60;1.00;;;17.90;42.20;;;;;;5069671;28;20442;-64
2022/09/17 10:58:30;;;;;;;2.63;0.80;;;17.90;42.50;;;;;;5061952;28;20424;-63
2022/09/17 11:01:08;;;;;;;2.40;1.03;;;17.80;42.00;;;;;;5072280;28;20434;-65
2022/09/17 11:03:51;;;;;;;3.47;1.30;;;17.70;42.30;;;;;;5069057;28;20571;-66
2022/09/17 11:06:41;;;;;;;3.80;1.97;;;17.50;41.80;;;;;;5068180;28;20433;-64
2022/09/17 11:09:20;;;;;;;4.93;1.60;;;17.30;42.50;;;;;;5068676;28;20461;-63
2022/09/17 11:11:57;;;;;;;4.90;1.63;;;17.10;42.90;;;;;;5071819;28;20949;-69
2022/09/17 11:14:43;;;;;;;4.93;1.43;;;17.10;43.50;;;;;;5071929;28;20442;-64
2022/09/17 11:17:27;;;;;;;2.73;1.40;;;17.10;43.70;;;;;;5070953;28;20466;-64
2022/09/17 11:20:01;;;;;;;3.90;1.30;;;17.20;43.90;;;;;;5070697;28;20443;-65
2022/09/17 11:22:40;;;;;;;2.53;1.20;;;17.20;43.90;;;;;;5067703;28;20436;-64
2022/09/17 11:25:33;;;;;;;6.30;1.53;;;17.00;43.40;;;;;;5070792;28;20447;-64
2022/09/17 11:28:10;;;;;;;2.97;1.10;;;16.90;45.00;;;;;;5071735;28;20965;-65
2022/09/17 11:33:51;;;;;;;3.00;1.40;;;16.50;45.30;;;;;;5071139;28;20428;-65
2022/09/17 11:36:23;;;;;;;4.90;1.27;;;16.30;60.20;;;;;;5071357;28;20502;-63
2022/09/17 11:38:51;;;;;;;3.07;1.00;;;16.10;62.90;;;;;;5069415;28;20440;-63
2022/09/17 11:41:23;;;;;;;2.70;0.80;;;15.90;62.90;;;;;;5071008;28;20493;-66
2022/09/17 11:44:04;;;;;;;4.03;1.23;;;15.80;60.50;;;;;;5066873;28;20475;-64
2022/09/17 11:46:39;;;;;;;3.70;1.20;;;15.70;60.90;;;;;;5070805;28;20471;-65
2022/09/17 11:49:18;;;;;;;2.50;1.10;;;16.30;62.40;;;;;;5069939;28;20412;-68
2022/09/17 11:51:50;;;;;;;2.13;0.90;;;17.00;61.40;;;;;;5070526;28;21000;-64
2022/09/17 11:54:22;;;;;;;4.23;1.00;;;17.20;60.20;;;;;;5070654;28;20448;-65
2022/09/17 11:56:52;;;;;;;2.10;0.70;;;17.20;61.20;;;;;;5071058;28;20432;-64
2022/09/17 11:59:27;;;;;;;1.60;0.57;;;17.10;59.90;;;;;;5066311;28;20858;-63
2022/09/17 12:01:58;;;;;;;4.33;0.70;;;16.80;59.50;;;;;;5065047;28;20451;-64
2022/09/17 12:04:39;;;;;;;2.13;1.10;;;16.40;60.30;;;;;;5070390;28;20525;-64
2022/09/17 12:07:22;;;;;;;2.23;0.87;;;16.10;61.50;;;;;;5070270;28;20515;-65
2022/09/17 12:09:53;;;;;;;2.87;1.00;;;16.20;64.10;;;;;;5070602;28;20476;-64
2022/09/17 12:12:24;;;;;;;2.27;0.77;;;17.00;67.40;;;;;;5069863;28;20436;-64
2022/09/17 12:14:55;;;;;;;2.70;0.80;;;18.40;63.70;;;;;;5069749;28;20491;-64
2022/09/17 12:17:25;;;;;;;2.47;0.80;;;19.70;62.20;;;;;;5070966;28;20445;-64
2022/09/17 12:19:57;;;;;;;2.50;0.77;;;20.50;57.40;;;;;;5070812;28;20448;-65
2022/09/17 12:22:29;;;;;;;2.67;0.60;;;20.80;54.90;;;;;;5066994;28;20440;-64
2022/09/17 12:24:57;;;;;;;1.70;0.60;;;20.80;53.90;;;;;;5070059;28;20478;-66
2022/09/17 12:27:35;;;;;;;2.40;0.80;;;20.20;52.40;;;;;;5070279;28;20444;-64
2022/09/17 12:30:12;;;;;;;3.13;0.60;;;19.70;52.40;;;;;;5070117;28;20538;-65
2022/09/17 12:33:08;;;;;;;2.80;1.00;;;19.30;53.50;;;;;;5070167;28;20439;-65
2022/09/17 12:36:02;;;;;;;1.93;0.90;;;18.80;54.50;;;;;;5059529;28;20443;-64
2022/09/17 12:38:52;;;;;;;2.37;1.10;;;18.10;55.30;;;;;;5060954;28;20438;-64
2022/09/17 12:41:21;;;;;;;2.53;0.90;;;;;;;;;;5069708;28;20437;-64
2022/09/17 12:43:56;;;;;;;3.97;1.27;;;;;;;;;;5069491;28;20486;-64
2022/09/17 12:46:38;;;;;;;2.47;1.00;;;;;;;;;;5070185;28;20436;-65
2022/09/17 12:49:17;;;;;;;3.13;0.80;;;;;;;;;;5070330;28;20436;-64
2022/09/17 12:51:56;;;;;;;3.20;1.23;;;;;;;;;;5070873;28;20452;-65
2022/09/17 12:54:41;;;;;;;4.10;1.10;;;;;;;;;;5071114;28;20846;-64
2022/09/17 12:57:12;;;;;;;3.30;1.37;;;;;;;;;;5070388;28;20527;-64
2022/09/17 12:59:43;;;;;;;3.20;1.23;;;;;;;;;;5070172;28;21003;-64
2022/09/17 13:02:16;;;;;;;3.27;1.30;;;;;;;;;;5069117;28;20896;-64
2022/09/17 13:05:03;;;;;;;3.90;0.90;;;;;;;;;;5070393;28;20999;-64
2022/09/17 13:07:50;;;;;;;2.57;1.00;;;;;;;;;;5068405;28;20788;-63
2022/09/17 13:10:35;;;;;;;3.40;0.97;;;;;;;;;;5066677;28;20435;-65
2022/09/17 13:13:08;;;;;;;4.70;0.97;;;;;;;;;;5066226;28;20834;-64
2022/09/17 13:15:39;;;;;;;2.37;0.90;;;;;;;;;;5070053;28;20444;-64
2022/09/17 13:18:13;;;;;;;2.70;1.00;;;;;;;;;;5069789;28;20444;-64
2022/09/17 13:20:44;;;;;;;3.00;0.90;;;;;;;;;;5070451;28;20801;-64
2022/09/17 13:23:12;;;;;;;3.20;1.07;;;;;;;;;;5067422;28;20529;-64
2022/09/17 13:25:50;;;;;;;3.23;1.50;;;;;;;;;;5069355;28;20428;-64
2022/09/17 13:28:19;;;;;;;3.60;1.87;;;;;;;;;;5070525;28;20914;-63
2022/09/17 13:30:56;;;;;;;2.80;1.17;;;;;;;;;;5069445;28;20479;-64
2022/09/17 13:33:50;;;;;;;3.10;1.20;;;;;;;;;;5069509;28;20439;-65